Immagine casuale
Testata Regione Lazio ARSIAL SIARL

Ultima Misura Rilevata

Temperatura, Umidità, Pioggia, Pressione Radiazione Solare, Venti, Evapotraspirazione, ecc.
Temperature diurne e notturne Direzione vento Legenda
Prov Stazione Data TMin TMed TMax UMed Pioggia PMed
FR ALATRI Basciano 10/12/2018 4,9 10,4 17,4 54 0 1.009
FR ALVITO Az. Ist. S. Benedetto 10/12/2018 N.D. N.D. N.D. N.D. N.D. N.D.
FR ANAGNI La Gloria 10/12/2018 1,4 8,3 16,5 72 0 1.016
FR ARPINO Vigne Piane 10/12/2018 4,9 8,8 15,1 62 0 1.009
FR BOVILLE ERNICA Sasso 10/12/2018 2,2 9,9 17,4 67 0 1.013
FR ESPERIA Modale 10/12/2018 1,4 7,5 17,9 82 0,2 1.009
FR PASTENA Acero 10/12/2018 -1,9 7 16 79 0 1.009
FR PIGLIO Civitella 10/12/2018 1,8 8,7 16,8 64 0 1.015
FR PONTECORVO Melfi di Sotto 10/12/2018 0,6 7,5 17,8 80 0 ----
FR S. ELIA FIUMERAPIDO Portella 10/12/2018 3,2 8,6 16,7 77 0 1.013
FR S. GIORGIO A LIRI Porto 10/12/2018 -0,6 6 17,4 85 0 1.007
FR SGURGOLA Campo Lungo 10/12/2018 0,6 10 16 70 0 ----
FR VALLECORSA Serbatoio comunale 10/12/2018 5 9,9 16,9 58 0 1.014
LT APRILIA Le Ferriere 10/12/2018 4,8 11,7 16,8 67 0 1.013
LT CISTERNA B.go Carso 10/12/2018 2,7 10,6 16,5 76 0,1 ----
LT CISTERNA Doganella di Ninfa 10/12/2018 6,6 11,9 16,6 60 0 1.012
LT CORI Portone 10/12/2018 7,5 12 16,5 59 0 1.014
LT FONDI Capratica 10/12/2018 3,7 9,8 19,3 74 0 1.012
LT FORMIA Loc. Gianola 10/12/2018 2,8 9,7 17,2 76 0 ----
LT ITRI Valle Quercia 10/12/2018 7,3 11,7 17,1 55 0 1.010
LT MAENZA Casacotta 10/12/2018 N.D. N.D. N.D. N.D. N.D. N.D.
LT MINTURNO Pulcherini 10/12/2018 7,6 11,7 17,6 65 0 1.012
LT PONTINIA Cotarda 10/12/2018 2,9 10,9 18,3 68 0 1.010
LT SABAUDIA Acquaviva 10/12/2018 4,5 11,6 17,4 67 0 1.011
LT SONNINO Frasso 10/12/2018 6,7 12,6 19,9 58 0 1.012
RI ACCUMOLI Terracino 10/12/2018 -0,8 3,4 5,7 66 0 1.015
RI BORGOVELINO Ponte Basso 10/12/2018 -2,3 3,7 14,2 85 0,2 1.008
RI CANTALUPO S. Francesco 10/12/2018 0,4 6,2 13,4 75 0 ----
RI CASTEL DI TORA Monte di Tora 10/12/2018 -0,7 5 13,8 81 0,2 1.010
RI CASTELNUOVO FARFA C. Spadone 10/12/2018 2 7,5 14,1 83 0 ----
RI CONFIGNI Portella 10/12/2018 3,1 7,5 14,6 76 0,2 1.018
RI FARA SABINA Canneto 10/12/2018 4,3 9,8 15,1 67 0 1.011
RI FARA SABINA Sant'Andrea 10/12/2018 4,2 9,1 14,6 75 0 ----
RI MONTELEONE S. Prato Camino 10/12/2018 1,8 7,2 14,8 74 0,2 1.013
RI MONTOPOLI IN SABINA Colle Arcone 10/12/2018 2,9 8,2 14,1 84 0 ----
RI MONTOPOLI IN SABINA Villa Caprola 10/12/2018 3,2 8,6 16 86 0 ----
RI POGGIO CATINO Pastine 10/12/2018 3,7 8,8 14,9 80 0 ----
RI POGGIO NATIVO Casali 10/12/2018 4,2 8,9 13,3 72 0 ----
RI RIETI Piana di Rieti 10/12/2018 -3,1 1,5 9,6 82 0,2 1.017
RI SCANDRIGLIA Ponticelli 10/12/2018 3,2 8,2 14 77 0 ----
RM AGOSTA La Cisterna 10/12/2018 1 7 13,6 69 0 1.010
RM BRACCIANO Prato Pianciano 10/12/2018 2,9 10,1 16,6 63 0 1.008
RM CANALE MONTERANO Monte Virginio 10/12/2018 -1,1 8,1 16,7 72 0 1.010
RM CERVETERI Campo di Mare 10/12/2018 6,5 12,3 17,4 53 0 ----
RM CIVITELLA S.PAOLO Le Cese 10/12/2018 1,7 8,5 13,4 76 0 1.010
RM FIUMICINO Maccarese 10/12/2018 3,1 10,1 19,6 74 0 1.013
RM FIUMICINO Testa di Lepre 10/12/2018 6,4 10,8 16,6 63 0 ----
RM FORMELLO Perazzeta 10/12/2018 4,8 10 15,4 65 0 ----
RM FRASCATI Prata Porci 10/12/2018 2,9 9 15,6 79 0 1.014
RM GENAZZANO Coop. La Sonnina 10/12/2018 3,3 9,6 15,2 64 0 1.013
RM GROTTAFERRATA Valle Marciana 10/12/2018 4,8 9,2 14,2 73 0 1.013
RM LICENZA Colle Franco 10/12/2018 1,7 7,4 13,9 68 0,2 1.011
RM MARCELLINA V. Campetella 10/12/2018 3,1 8,9 14,6 78 0 ----
RM MARINO Gotto d'Oro 10/12/2018 4 9,9 16,1 78 0 1.016
RM MONTECOMPATRI Colle Mattia 10/12/2018 2,7 8,6 14,8 77 0 1.015
RM MONTECOMPATRI Pantano Borghese 10/12/2018 -1 6,8 16,7 82 0,2 1.009
RM MONTELIBRETTI Bruciati 10/12/2018 2,6 8,3 15,9 79 0 ----
RM MONTEPORZIO Camaldoli 10/12/2018 2,4 7,4 11,1 78 0 1.015
RM MONTEROTONDO Grotta Marozza 10/12/2018 3 8,4 15,9 79 0 1.014
RM PALOMBARA Fonte Grande 10/12/2018 1,4 6,9 14,7 75 0 ----
RM ROMA Capocotta 10/12/2018 5,6 11,6 16,6 67 0 ----
RM ROMA Ponte di Nona 10/12/2018 3,2 9,5 15,2 81 0 1.015
RM ROMA Via Lanciani 38 10/12/2018 6,8 11 15,9 69 0 1.012
RM S. GREGORIO C. Faustiniano 10/12/2018 4 8,6 14,1 73 0 1.011
RM VELLETRI Cantina Sperimentale 10/12/2018 6,9 11,8 17,2 53 0 1.009
RM VELLETRI Prato Lungo 10/12/2018 5,1 11,2 17,5 59 0 ----
RM ZAGAROLO Santa Apollara 10/12/2018 5,3 9,3 14,5 76 0,2 ----
VT ACQUAPENDENTE Falconiera 10/12/2018 1,5 7,6 13,5 61 0 1.011
VT BAGNOREGIO Castell Cellesi 10/12/2018 4,5 8,6 12,5 62 0 ----
VT BASSANO R. Piano Mola 10/12/2018 4,1 8,5 16,6 66 0 1.009
VT BLERA Puntoni 10/12/2018 3,1 8,9 15,7 69 0,2 1.013
VT BOLSENA Capone 10/12/2018 4,1 8,9 15,6 60 0 1.008
VT BOLSENA Rentica 10/12/2018 3,3 8 14,4 62 0 ----
VT CANINO Diga Timone 10/12/2018 1 7 17,1 76 0 1.012
VT CANINO Pianacce 10/12/2018 1,1 8,3 16,6 67 0 1.014
VT CANINO San Valeriano 10/12/2018 5,4 10,2 15,5 60 0 ----
VT CELLENO Acquaforte 10/12/2018 1,7 8 13,6 70 0 ----
VT CORCHIANO Pantalone 10/12/2018 -0,3 6,6 15,3 75 0,2 1.011
VT FARNESE Gressa 10/12/2018 N.D. N.D. N.D. N.D. N.D. ----
VT FARNESE Pian di Sala 10/12/2018 -0,1 7,2 14,9 65 0,1 ----
VT GROTTE DI CASTRO Borghetto 10/12/2018 0,7 7,1 15,1 70 0 1.016
VT GROTTE DI CASTRO Purgatorio 10/12/2018 0,8 7,2 14,1 65 0 1.016
VT LATERA Centro Florovivaistico 10/12/2018 0,5 7,5 14,8 61 0 1.012
VT MONTALTO Le Murelle 10/12/2018 1 9,5 17,7 69 0 1.015
VT MONTALTO Pescia Romana 10/12/2018 3 10,2 17,5 67 0 1.014
VT MONTEFIASCONE Commenda 10/12/2018 3,9 8,9 14,9 70 0,1 ----
VT RONCIGLIONE Ponterotto 10/12/2018 2,3 8,8 15,1 59 0 ----
VT SORIANO CIMINO Pantane 10/12/2018 -2,7 6,6 14,7 74 0 1.010
VT SORIANO CIMINO Poggio di Chia 10/12/2018 1 8,2 14,8 68 0 ----
VT TARQUINIA Portaccia 10/12/2018 3 10,3 17,8 70 0 ----
VT TUSCANIA Montebello 10/12/2018 5,7 10,5 15,6 63 0 ----
VT VETRALLA Marchionato 10/12/2018 3,6 9 14,8 70 0 ----
VT VITERBO Pisello 10/12/2018 5,2 8,7 14,6 71 0 ----
N.D. = Dati Non Disponibili
---- = Sensore non presente

Le misure esposte sono grezze, ovvero non sono state validate